Time;durP1;ratioP1;P1;durP2;ratioP2;P2;SDS_P1;SDS_P2;PMS_P1;PMS_P2;Temp;Humidity;BMP_temperature;BMP_pressure;BME280_temperature;BME280_humidity;BME280_pressure;Samples;Min_cycle;Max_cycle;Signal;HPM_P1;HPM_P2
2022/07/28 00:02:04;;;;;;;3.03;1.70;;;23.90;47.40;;;24.31;34.00;98593.28;5046296;27;125181;-70
2022/07/28 00:04:32;;;;;;;3.07;1.90;;;23.90;46.90;;;24.27;34.16;98598.16;5042733;27;114506;-70
2022/07/28 00:06:59;;;;;;;4.03;1.33;;;23.80;46.90;;;24.27;33.98;98591.72;5039167;27;114063;-73
2022/07/28 00:09:26;;;;;;;3.57;1.30;;;23.80;47.00;;;24.24;34.19;98591.31;5026513;27;124394;-70
2022/07/28 00:11:53;;;;;;;2.73;1.60;;;23.80;47.20;;;24.17;34.13;98582.88;5026334;27;123583;-69
2022/07/28 00:14:20;;;;;;;5.60;1.70;;;23.70;47.20;;;24.10;34.21;98585.75;5029644;27;114288;-70
2022/07/28 00:16:47;;;;;;;1.40;1.10;;;24.70;48.10;;;24.07;34.19;98574.44;5029637;27;113435;-70
2022/07/28 00:19:13;;;;;;;4.87;1.80;;;23.60;47.20;;;24.02;34.31;98584.16;5026143;27;124139;-70
2022/07/28 00:21:40;;;;;;;4.37;1.87;;;23.60;47.30;;;23.96;34.49;98569.63;5028901;27;123814;-70
2022/07/28 00:24:06;;;;;;;2.80;2.03;;;23.50;47.40;;;23.94;34.71;98577.72;5030645;27;114310;-70
2022/07/28 00:26:33;;;;;;;1.80;1.30;;;23.50;47.60;;;23.94;34.56;98565.63;5032864;27;114051;-70
2022/07/28 00:29:00;;;;;;;2.80;1.43;;;23.50;47.60;;;23.94;34.63;98571.28;5031507;27;125713;-70
2022/07/28 00:31:27;;;;;;;2.70;1.40;;;23.50;47.60;;;23.93;34.53;98559.16;5027838;27;123894;-70
2022/07/28 00:33:53;;;;;;;3.47;1.90;;;23.50;47.70;;;23.94;34.59;98569.25;5027290;27;114882;-70
2022/07/28 00:36:20;;;;;;;3.57;1.53;;;23.50;47.70;;;23.92;34.66;98560.38;5044455;27;112975;-70
2022/07/28 00:38:46;;;;;;;3.60;1.80;;;23.50;47.80;;;23.91;34.78;98566.44;5044539;27;124176;-69
2022/07/28 00:41:13;;;;;;;4.83;1.60;;;23.40;47.80;;;23.87;34.78;98566.44;5037353;27;123830;-70
2022/07/28 00:43:45;;;;;;;3.03;1.20;;;23.40;47.90;;;23.87;35.01;98565.66;5024386;27;115287;-70
2022/07/28 00:46:15;;;;;;;6.27;1.50;;;23.40;48.00;;;23.86;34.97;98564.03;5030028;27;114687;-70
2022/07/28 00:48:47;;;;;;;2.10;1.20;;;23.40;48.00;;;23.81;34.83;98559.63;5038616;27;124533;-70
2022/07/28 00:51:15;;;;;;;3.20;1.60;;;23.40;48.10;;;23.79;34.95;98564.88;5029086;27;123635;-70
2022/07/28 00:53:43;;;;;;;4.20;1.30;;;23.40;48.10;;;23.76;35.17;98566.47;5047359;27;114282;-70
2022/07/28 00:56:11;;;;;;;4.03;1.83;;;23.40;48.20;;;23.76;35.25;98572.13;5040420;27;114042;-70
2022/07/28 00:58:38;;;;;;;1.60;1.50;;;23.40;49.00;;;23.75;35.08;98569.69;5042448;27;123890;-70
2022/07/28 01:01:10;;;;;;;2.87;1.40;;;23.30;48.80;;;23.74;35.22;98565.28;5046254;27;124348;-71
2022/07/28 01:03:43;;;;;;;2.17;1.30;;;23.30;48.50;;;23.72;35.24;98564.88;5045050;27;114680;-70
2022/07/28 01:06:52;;;;;;;2.17;1.30;;;23.30;48.50;;;23.68;35.20;98561.25;5048489;27;114169;-70
2022/07/28 01:09:44;;;;;;;2.60;1.40;;;23.30;48.50;;;23.64;35.56;98558.41;5047623;27;124272;-70
2022/07/28 01:12:25;;;;;;;5.43;1.60;;;23.20;48.60;;;23.65;35.61;98554.41;5035224;27;123789;-70
2022/07/28 01:15:24;;;;;;;1.77;1.17;;;23.20;48.70;;;23.63;35.57;98559.63;5047885;27;114283;-70
2022/07/28 01:18:20;;;;;;;2.87;1.63;;;23.20;48.80;;;23.60;35.55;98549.97;5032751;27;114382;-70
2022/07/28 01:21:12;;;;;;;2.33;1.57;;;23.20;48.90;;;23.62;35.72;98552.38;5034297;27;123287;-70
2022/07/28 01:24:19;;;;;;;3.00;1.47;;;23.20;49.00;;;23.60;35.87;98551.97;5050120;27;123287;-71
2022/07/28 01:27:10;;;;;;;2.80;1.70;;;23.20;49.10;;;23.56;35.85;98543.53;5045669;27;114090;-70
2022/07/28 01:30:02;;;;;;;3.30;1.50;;;23.20;49.30;;;23.58;35.85;98557.22;5035201;27;114027;-70
2022/07/28 01:32:45;;;;;;;3.27;1.43;;;23.20;49.40;;;23.56;36.15;98534.25;5043521;27;124127;-70
2022/07/28 01:35:26;;;;;;;2.60;1.60;;;23.20;49.40;;;23.54;35.59;98542.34;5045336;27;123711;-70
2022/07/28 01:37:59;;;;;;;3.90;1.80;;;23.10;49.30;;;23.53;35.95;98535.06;5036033;27;115222;-70
2022/07/28 01:40:32;;;;;;;2.13;1.50;;;23.10;49.40;;;23.50;36.03;98539.50;5040583;27;115170;-70
2022/07/28 01:43:04;;;;;;;5.67;1.70;;;23.10;49.50;;;23.49;36.18;98542.75;5040631;27;124050;-69
2022/07/28 01:45:33;;;;;;;2.93;1.70;;;23.10;49.60;;;23.48;36.38;98543.94;5047430;27;123839;-70
2022/07/28 01:48:01;;;;;;;4.67;1.70;;;23.10;49.60;;;23.44;36.09;98538.31;5049067;27;115443;-71
2022/07/28 01:50:29;;;;;;;3.33;1.50;;;23.10;49.60;;;23.43;36.39;98538.72;5041817;27;114344;-71
2022/07/28 01:52:57;;;;;;;8.00;1.57;;;23.00;49.60;;;23.40;36.42;98542.34;5041205;27;123974;-71
2022/07/28 01:55:25;;;;;;;3.10;1.47;;;23.00;49.70;;;23.37;36.37;98533.50;5014140;27;123160;-71
2022/07/28 01:57:54;;;;;;;2.67;1.80;;;23.00;49.80;;;23.33;36.63;98532.69;5032855;27;112691;-71
2022/07/28 02:00:25;;;;;;;4.03;1.90;;;22.90;49.80;;;23.30;36.54;98522.22;5046200;27;113817;-71
2022/07/28 02:02:53;;;;;;;2.03;1.53;;;22.90;49.90;;;23.26;36.76;98529.06;5041346;27;124159;-71
2022/07/28 02:05:22;;;;;;;3.80;1.90;;;22.90;49.90;;;23.21;36.71;98535.91;5031918;27;124081;-71
2022/07/28 02:07:50;;;;;;;4.33;1.80;;;22.80;50.10;;;23.17;36.76;98528.69;5041863;27;114246;-71
2022/07/28 02:10:18;;;;;;;2.87;1.60;;;22.80;50.20;;;23.13;36.96;98525.84;5043305;27;114382;-71
2022/07/28 02:12:48;;;;;;;1.90;1.50;;;22.80;50.30;;;23.10;37.00;98526.66;5041748;27;124456;-71
2022/07/28 02:15:15;;;;;;;2.67;1.60;;;22.70;51.00;;;23.08;36.92;98526.28;5031788;27;123792;-68
2022/07/28 02:17:45;;;;;;;2.20;1.40;;;22.60;50.40;;;23.05;37.08;98521.44;5029704;27;113903;-71
2022/07/28 02:20:14;;;;;;;8.30;2.03;;;22.70;50.70;;;23.03;37.15;98526.69;5048160;27;114417;-71
2022/07/28 02:22:41;;;;;;;2.13;1.50;;;22.70;50.80;;;23.01;37.33;98520.63;5047377;27;124199;-71
2022/07/28 02:25:09;;;;;;;2.77;1.77;;;22.60;50.80;;;22.99;37.15;98517.41;5035335;27;123748;-68
2022/07/28 02:27:41;;;;;;;2.20;1.60;;;22.60;50.90;;;22.97;37.67;98514.19;5041609;27;114516;-68
2022/07/28 02:30:14;;;;;;;5.30;1.80;;;22.60;51.10;;;22.94;37.43;98510.13;5044026;27;114952;-71
2022/07/28 02:33:10;;;;;;;3.10;1.60;;;22.50;51.00;;;22.87;37.54;98510.94;5045819;27;124023;-71
2022/07/28 02:36:13;;;;;;;1.60;1.40;;;22.50;51.00;;;22.83;37.45;98510.13;5038348;27;124651;-71
2022/07/28 02:38:44;;;;;;;2.33;1.70;;;22.50;51.70;;;22.84;37.52;98506.13;5046438;27;114255;-71
2022/07/28 02:41:18;;;;;;;4.13;1.90;;;22.40;51.00;;;22.82;37.48;98502.09;5032174;27;113815;-71
2022/07/28 02:43:47;;;;;;;2.83;2.03;;;22.40;51.00;;;22.77;37.63;98503.28;5043516;27;124721;-71
2022/07/28 02:46:18;;;;;;;2.40;1.53;;;22.40;51.10;;;22.78;37.52;98501.28;5042613;27;124309;-71
2022/07/28 02:48:50;;;;;;;3.50;1.60;;;22.30;51.00;;;22.76;37.63;98501.69;5048347;27;113578;-71
2022/07/28 02:51:20;;;;;;;3.00;1.70;;;22.30;51.20;;;22.75;37.41;98497.25;5038324;27;113325;-71
2022/07/28 02:53:48;;;;;;;2.63;1.83;;;22.30;51.10;;;22.76;37.70;98496.06;5039522;27;124168;-71
2022/07/28 02:56:16;;;;;;;1.87;1.50;;;22.30;51.10;;;22.73;37.39;98496.88;5040388;27;123823;-71
2022/07/28 02:58:44;;;;;;;2.90;1.50;;;22.30;51.10;;;22.74;37.58;98497.66;5041666;27;114254;-72
2022/07/28 03:01:11;;;;;;;3.03;1.57;;;22.30;51.20;;;22.72;37.91;98506.50;5047150;27;114530;-71
2022/07/28 03:03:38;;;;;;;2.70;1.67;;;22.30;51.30;;;22.71;37.61;98502.88;5042793;27;124089;-71
2022/07/28 03:06:05;;;;;;;5.47;1.80;;;22.30;51.30;;;22.70;37.57;98495.66;5039637;27;124088;-71
2022/07/28 03:08:31;;;;;;;1.70;1.33;;;22.30;51.30;;;22.64;37.44;98497.25;5044443;27;114603;-71
2022/07/28 03:11:12;;;;;;;3.57;1.63;;;22.20;51.20;;;22.59;37.71;98499.66;5041524;27;113878;-71
2022/07/28 03:13:39;;;;;;;4.27;1.97;;;22.20;51.30;;;22.50;37.66;98508.50;5034215;27;123918;-71
2022/07/28 03:16:06;;;;;;;2.70;1.90;;;22.00;51.20;;;22.44;37.72;98498.84;5043510;27;124027;-71
2022/07/28 03:18:33;;;;;;;1.97;1.47;;;22.00;51.40;;;22.42;37.79;98504.84;5043339;27;114529;-71
2022/07/28 03:21:00;;;;;;;2.50;1.40;;;22.00;51.60;;;22.42;38.14;98509.69;5049643;27;114141;-71
2022/07/28 03:23:43;;;;;;;4.43;1.90;;;22.00;51.50;;;22.38;37.99;98501.25;5043655;27;124174;-70
2022/07/28 03:26:40;;;;;;;1.90;1.47;;;22.00;51.50;;;22.32;38.15;98505.63;5036202;27;123714;-69
2022/07/28 03:29:09;;;;;;;2.70;1.60;;;22.00;51.60;;;22.30;38.28;98510.88;5047755;27;114599;-69
2022/07/28 03:31:38;;;;;;;2.70;1.80;;;21.90;51.50;;;22.28;37.79;98513.28;5044713;27;113956;-69
2022/07/28 03:34:05;;;;;;;2.00;1.60;;;21.90;51.50;;;22.24;38.26;98506.81;5042878;27;124342;-69
2022/07/28 03:36:39;;;;;;;3.50;2.20;;;21.90;51.50;;;22.21;38.18;98505.59;5031474;27;124347;-69
2022/07/28 03:39:10;;;;;;;3.53;1.90;;;21.80;51.60;;;22.20;38.33;98514.47;5042380;27;113467;-69
2022/07/28 03:41:40;;;;;;;3.50;1.60;;;21.80;51.70;;;22.17;38.52;98515.22;5036989;27;113844;-69
2022/07/28 03:44:09;;;;;;;2.40;1.57;;;21.80;51.90;;;22.17;38.58;98512.41;5043666;27;124251;-69
2022/07/28 03:46:45;;;;;;;2.10;1.53;;;21.80;52.10;;;22.15;38.64;98510.00;5040118;27;124256;-69
2022/07/28 03:49:12;;;;;;;2.60;1.50;;;21.80;52.10;;;22.14;38.45;98511.22;5048708;27;114684;-69
2022/07/28 03:51:38;;;;;;;3.03;1.70;;;21.70;52.00;;;22.12;38.42;98522.03;5041210;27;114007;-69
2022/07/28 03:54:05;;;;;;;2.77;1.50;;;21.60;52.00;;;22.10;38.33;98524.44;5045543;27;123957;-71
2022/07/28 03:56:31;;;;;;;2.77;1.90;;;21.70;52.00;;;22.05;38.48;98516.38;5047298;27;123719;-69
2022/07/28 03:58:58;;;;;;;4.50;1.87;;;21.70;52.10;;;22.02;38.82;98525.63;5044006;27;114592;-70
2022/07/28 04:01:24;;;;;;;4.90;1.30;;;21.60;52.20;;;22.00;38.85;98520.41;5044557;27;114459;-70
2022/07/28 04:03:51;;;;;;;1.97;1.53;;;21.60;52.30;;;21.97;38.63;98529.59;5040854;27;124056;-69
2022/07/28 04:06:17;;;;;;;3.90;1.57;;;21.60;52.40;;;21.94;38.97;98527.59;5038618;27;123786;-69
2022/07/28 04:08:44;;;;;;;1.43;1.33;;;21.50;52.30;;;21.91;39.07;98524.78;5047502;27;113460;-69
2022/07/28 04:11:11;;;;;;;1.93;1.40;;;21.50;52.40;;;21.87;38.87;98533.22;5047257;27;115124;-69
2022/07/28 04:13:38;;;;;;;2.30;1.40;;;21.50;52.50;;;21.84;39.25;98536.78;5044777;27;124062;-69
2022/07/28 04:16:05;;;;;;;2.77;1.47;;;21.40;52.50;;;21.82;39.10;98530.78;5014754;27;122665;-69
2022/07/28 04:18:32;;;;;;;3.47;1.93;;;21.40;52.60;;;21.79;39.23;98537.19;5042552;27;114501;-69
2022/07/28 04:20:59;;;;;;;2.80;1.63;;;21.40;52.70;;;21.74;39.19;98535.56;5045059;27;114421;-69
2022/07/28 04:23:38;;;;;;;3.40;1.37;;;21.30;52.70;;;21.71;39.33;98535.50;5044403;27;124164;-69
2022/07/28 04:26:18;;;;;;;3.53;1.80;;;21.30;52.90;;;21.68;39.48;98536.31;5034742;27;124269;-69
2022/07/28 04:29:01;;;;;;;3.03;1.80;;;21.20;52.90;;;21.65;39.62;98534.28;5036781;27;114206;-69
2022/07/28 04:31:38;;;;;;;2.43;1.30;;;21.20;53.10;;;21.64;39.59;98536.28;5050836;27;114261;-69
2022/07/28 04:34:13;;;;;;;3.90;1.80;;;21.20;53.20;;;21.60;39.33;98533.47;5041940;27;126132;-69
2022/07/28 04:36:42;;;;;;;5.03;1.50;;;21.20;53.20;;;21.58;39.36;98526.63;5042199;27;124000;-69
2022/07/28 04:39:20;;;;;;;2.10;1.60;;;21.20;53.30;;;21.57;39.23;98534.25;5046978;27;114355;-69
2022/07/28 04:41:46;;;;;;;5.67;1.80;;;21.10;53.30;;;21.57;39.90;98527.81;5046807;27;114001;-70
2022/07/28 04:44:13;;;;;;;3.87;1.93;;;21.20;53.50;;;21.58;39.85;98526.63;5040413;27;123751;-70
2022/07/28 04:46:40;;;;;;;4.00;1.53;;;21.10;53.60;;;21.60;39.95;98525.03;5036396;27;123800;-70
2022/07/28 04:49:06;;;;;;;3.40;1.67;;;21.10;53.80;;;21.63;39.90;98523.44;5045089;27;114167;-70
2022/07/28 04:51:34;;;;;;;2.13;1.57;;;21.10;53.80;;;21.64;39.79;98527.84;5038197;27;112897;-70
2022/07/28 04:54:01;;;;;;;2.43;1.63;;;21.10;53.80;;;21.65;39.71;98521.03;5040051;27;124444;-71
2022/07/28 04:56:27;;;;;;;3.77;1.83;;;21.20;54.00;;;21.69;40.28;98521.06;5047291;27;122775;-71
2022/07/28 04:58:54;;;;;;;4.30;2.20;;;21.20;54.30;;;21.72;40.36;98525.91;5047815;27;115510;-69
2022/07/28 05:01:20;;;;;;;2.23;1.70;;;21.20;54.30;;;21.72;40.38;98517.47;5049501;27;115077;-69
2022/07/28 05:03:47;;;;;;;14.00;2.40;;;21.20;54.30;;;21.74;40.03;98523.50;5051695;27;123781;-69
2022/07/28 05:06:13;;;;;;;3.27;1.60;;;21.20;54.40;;;21.77;40.35;98519.91;5040888;27;123865;-70
2022/07/28 05:08:40;;;;;;;3.50;1.83;;;21.20;54.50;;;21.79;40.43;98518.31;5038073;27;113965;-70
2022/07/28 05:11:06;;;;;;;2.43;1.70;;;21.20;54.50;;;21.80;40.30;98516.28;5049270;27;114849;-70
2022/07/28 05:13:33;;;;;;;3.77;1.60;;;21.20;54.60;;;21.79;40.39;98531.56;5049590;27;124678;-70
2022/07/28 05:16:00;;;;;;;3.13;1.90;;;21.20;54.60;;;21.77;40.48;98528.34;5045304;27;124060;-69
2022/07/28 05:18:27;;;;;;;4.70;2.00;;;21.20;54.70;;;21.78;40.55;98538.38;5052202;27;113252;-70
2022/07/28 05:20:53;;;;;;;2.63;1.60;;;21.20;54.90;;;21.78;40.60;98539.16;5041402;27;114027;-70
2022/07/28 05:23:20;;;;;;;2.70;1.57;;;21.20;55.00;;;21.83;40.79;98529.56;5048628;27;125168;-70
2022/07/28 05:25:46;;;;;;;4.57;2.60;;;21.20;55.30;;;21.86;40.40;98528.75;5049230;27;124242;-70
2022/07/28 05:28:13;;;;;;;10.83;3.20;;;21.30;55.30;;;21.90;40.31;98526.78;5048768;27;113477;-70
2022/07/28 05:30:39;;;;;;;5.10;2.47;;;21.30;55.30;;;21.93;40.45;98531.63;5034807;27;114067;-70
2022/07/28 05:33:06;;;;;;;3.63;2.07;;;21.30;55.20;;;21.97;40.58;98528.81;5040115;27;124011;-70
2022/07/28 05:35:33;;;;;;;6.60;2.80;;;21.40;55.20;;;22.02;40.63;98529.22;5035631;27;123663;-70
2022/07/28 05:37:59;;;;;;;7.47;3.63;;;21.40;55.10;;;22.07;40.52;98525.25;5047630;27;114789;-70
2022/07/28 05:40:26;;;;;;;14.57;3.07;;;21.50;55.20;;;22.11;40.42;98525.25;5041076;27;114013;-70
2022/07/28 05:42:53;;;;;;;3.93;2.10;;;21.50;55.10;;;22.13;40.55;98528.47;5047025;27;124550;-70
2022/07/28 05:45:19;;;;;;;3.83;2.23;;;21.50;55.50;;;22.19;40.38;98526.91;5037919;27;124041;-70
2022/07/28 05:47:48;;;;;;;5.93;3.10;;;21.60;55.70;;;22.20;40.44;98526.53;5031890;27;115316;-70
2022/07/28 05:50:16;;;;;;;3.03;1.87;;;21.60;55.50;;;22.22;40.60;98526.13;5041679;27;115100;-70
2022/07/28 05:52:44;;;;;;;6.77;2.07;;;21.60;55.70;;;22.27;40.42;98531.34;5032043;27;124777;-70
2022/07/28 05:55:10;;;;;;;3.10;1.80;;;21.70;55.70;;;22.28;40.11;98525.34;5033949;27;124084;-70
2022/07/28 05:57:38;;;;;;;4.73;2.30;;;21.70;55.50;;;22.28;40.11;98525.34;5039446;27;114169;-69
2022/07/28 06:00:12;;;;;;;5.00;2.17;;;21.70;55.60;;;22.32;40.38;98536.59;5037811;27;114524;-71
2022/07/28 06:02:40;;;;;;;5.93;2.17;;;21.70;55.70;;;22.40;40.42;98532.59;5045877;27;123220;-71
2022/07/28 06:05:07;;;;;;;9.20;2.20;;;21.70;55.70;;;22.41;40.40;98528.59;5035343;27;123820;-71
2022/07/28 06:07:35;;;;;;;5.30;2.40;;;21.80;56.00;;;22.44;40.32;98524.97;5046999;27;113847;-72
2022/07/28 06:10:02;;;;;;;4.43;2.07;;;21.80;56.00;;;22.53;40.56;98521.78;5042232;27;115589;-71
2022/07/28 06:12:29;;;;;;;4.63;1.80;;;21.80;56.00;;;22.64;40.57;98524.59;5048854;27;122328;-71
2022/07/28 06:14:55;;;;;;;7.70;2.63;;;21.90;55.90;;;22.68;40.12;98526.22;5043164;27;123212;-71
2022/07/28 06:17:22;;;;;;;5.87;3.03;;;22.00;55.80;;;22.68;40.47;98525.44;5030127;27;114410;-72
2022/07/28 06:19:48;;;;;;;6.00;2.57;;;22.00;56.00;;;22.71;40.18;98524.63;5025769;27;113781;-72
2022/07/28 06:22:15;;;;;;;3.37;2.27;;;22.00;56.00;;;22.77;40.36;98523.00;5040729;27;124047;-70
2022/07/28 06:24:41;;;;;;;5.33;2.60;;;22.10;56.10;;;22.84;40.25;98519.41;5044592;27;123258;-70
2022/07/28 06:27:08;;;;;;;4.30;2.50;;;22.10;56.00;;;22.83;40.48;98520.59;5048404;27;115910;-70
2022/07/28 06:29:34;;;;;;;6.03;2.37;;;22.10;56.00;;;22.84;40.39;98514.56;5042729;27;111993;-70
2022/07/28 06:32:01;;;;;;;4.30;2.47;;;22.10;56.10;;;22.91;40.35;98520.19;5038990;27;123332;-70
2022/07/28 06:34:27;;;;;;;3.83;2.43;;;22.20;56.20;;;23.00;40.27;98524.66;5030401;27;123847;-71
2022/07/28 06:36:54;;;;;;;3.07;2.20;;;22.30;56.20;;;23.03;40.39;98523.88;5038316;27;115225;-71
2022/07/28 06:39:20;;;;;;;3.43;2.57;;;22.30;56.20;;;23.10;40.08;98523.84;5030921;27;114353;-71
2022/07/28 06:41:47;;;;;;;4.67;2.53;;;22.40;56.20;;;23.18;40.01;98519.81;5034007;27;123799;-71
2022/07/28 06:44:13;;;;;;;5.27;2.60;;;22.40;56.20;;;23.27;40.29;98523.03;5034745;27;124195;-70
2022/07/28 06:46:40;;;;;;;4.73;2.50;;;22.50;56.30;;;23.29;40.21;98523.44;5037293;27;114120;-71
2022/07/28 06:49:07;;;;;;;4.13;2.60;;;22.60;56.40;;;23.34;40.05;98527.84;5044130;27;116378;-71
2022/07/28 06:51:33;;;;;;;5.93;2.90;;;22.60;56.40;;;23.37;40.07;98516.59;5042040;27;124063;-72
2022/07/28 06:54:00;;;;;;;6.47;2.70;;;22.60;56.40;;;23.42;40.01;98528.66;5046687;27;123605;-71
2022/07/28 06:56:26;;;;;;;5.70;2.67;;;22.70;56.60;;;23.48;40.21;98518.56;5047677;27;114638;-71
2022/07/28 06:58:53;;;;;;;8.03;2.87;;;22.80;56.60;;;23.55;40.19;98516.53;5035063;27;114478;-71
2022/07/28 07:01:19;;;;;;;5.10;2.50;;;22.80;56.60;;;23.63;40.37;98525.78;5037718;27;123141;-72
2022/07/28 07:03:46;;;;;;;4.13;3.00;;;22.90;56.60;;;23.59;40.32;98513.72;5039975;27;124037;-73
2022/07/28 07:06:12;;;;;;;7.70;2.97;;;22.90;56.90;;;23.50;40.54;98518.97;5040631;27;113623;-73
2022/07/28 07:08:39;;;;;;;6.63;3.50;;;22.80;57.10;;;23.48;40.65;98518.56;5029145;27;114326;-73
2022/07/28 07:11:05;;;;;;;5.20;3.07;;;22.80;57.30;;;23.53;40.57;98513.31;5025871;27;124082;-73
2022/07/28 07:13:32;;;;;;;9.50;3.30;;;22.80;57.20;;;23.61;40.42;98511.28;5036211;27;123887;-72
2022/07/28 07:15:58;;;;;;;6.03;2.97;;;22.90;57.80;;;23.68;40.43;98508.44;5031548;27;114285;-72
2022/07/28 07:18:25;;;;;;;5.43;3.67;;;22.90;57.10;;;23.76;40.45;98504.41;5036028;27;114428;-74
2022/07/28 07:20:53;;;;;;;7.57;3.60;;;23.00;57.20;;;23.83;40.37;98503.59;5029034;27;124039;-73
2022/07/28 07:23:19;;;;;;;6.03;3.20;;;23.10;57.30;;;23.86;40.43;98504.78;5058434;27;123420;-72
2022/07/28 07:25:46;;;;;;;6.80;3.10;;;23.10;57.30;;;23.90;40.71;98499.94;5028827;27;115060;-71
2022/07/28 07:28:12;;;;;;;7.53;3.53;;;23.10;57.50;;;23.86;40.53;98510.41;5035603;27;114926;-71
2022/07/28 07:30:39;;;;;;;4.40;3.10;;;23.10;57.80;;;23.87;40.81;98497.94;5029734;27;124520;-71
2022/07/28 07:33:05;;;;;;;4.97;2.90;;;23.20;57.80;;;23.99;40.78;98500.28;5035602;27;123894;-73
2022/07/28 07:35:33;;;;;;;5.80;3.50;;;23.20;57.80;;;24.10;40.61;98494.59;5041237;27;113878;-72
2022/07/28 07:37:59;;;;;;;5.30;3.67;;;23.40;57.80;;;24.19;40.69;98492.13;5030902;27;114015;-73
2022/07/28 07:40:26;;;;;;;9.40;3.80;;;23.40;58.00;;;24.24;40.61;98486.84;5048505;27;123130;-72
2022/07/28 07:42:52;;;;;;;5.33;3.90;;;23.50;58.10;;;24.28;40.44;98494.50;5041875;27;124144;-72
2022/07/28 07:45:19;;;;;;;4.63;3.43;;;23.50;57.80;;;24.33;40.58;98496.88;5033221;27;114690;-72
2022/07/28 07:47:46;;;;;;;5.30;3.50;;;23.60;57.80;;;24.39;40.51;98496.03;5030478;27;114649;-71
2022/07/28 07:50:12;;;;;;;6.27;4.37;;;23.60;58.00;;;24.42;40.78;98488.75;5035863;27;123620;-72
2022/07/28 07:52:39;;;;;;;7.43;4.30;;;23.60;58.10;;;24.46;40.78;98495.22;5040524;27;123823;-72
2022/07/28 07:55:14;;;;;;;5.47;3.53;;;23.70;58.20;;;24.56;40.57;98494.34;5049518;27;114506;-72
2022/07/28 07:57:41;;;;;;;5.50;3.80;;;23.80;58.20;;;24.66;40.35;98492.66;5038382;27;114374;-71
2022/07/28 08:00:08;;;;;;;6.30;4.50;;;23.90;58.20;;;24.73;40.57;98491.81;5021899;27;123394;-72
2022/07/28 08:02:38;;;;;;;7.73;4.17;;;23.90;58.20;;;24.74;40.44;98491.38;5055306;27;122935;-72
2022/07/28 08:05:06;;;;;;;6.67;3.67;;;24.00;58.30;;;24.78;40.60;98491.38;5045122;27;114908;-72
2022/07/28 08:07:33;;;;;;;5.50;4.30;;;24.00;58.40;;;24.80;40.84;98491.78;5049379;27;113599;-73
2022/07/28 08:09:59;;;;;;;12.20;4.30;;;24.00;58.30;;;24.87;40.70;98488.88;5032702;27;124293;-73
2022/07/28 08:12:26;;;;;;;4.70;3.23;;;24.10;58.30;;;24.95;40.54;98490.41;5037044;27;124155;-72
2022/07/28 08:14:54;;;;;;;6.23;4.03;;;24.20;58.40;;;25.00;40.59;98492.00;5043576;27;115305;-72
2022/07/28 08:17:21;;;;;;;4.60;3.50;;;24.30;58.40;;;25.02;40.67;98486.72;5041930;27;114921;-73
2022/07/28 08:19:48;;;;;;;6.63;3.93;;;24.30;58.60;;;25.06;40.52;98484.66;5043484;27;124511;-73
2022/07/28 08:22:16;;;;;;;7.03;4.53;;;24.30;58.50;;;25.13;40.73;98488.22;5047428;27;123076;-72
2022/07/28 08:24:42;;;;;;;6.23;4.60;;;24.40;58.50;;;25.21;40.69;98497.47;5032866;27;113451;-73
2022/07/28 08:27:09;;;;;;;8.20;3.90;;;24.50;58.60;;;25.22;40.70;98484.94;5042532;27;113638;-72
2022/07/28 08:29:36;;;;;;;5.20;4.00;;;24.50;58.60;;;25.27;40.46;98475.19;5042782;27;123960;-72
2022/07/28 08:32:03;;;;;;;5.10;4.03;;;24.90;58.80;;;25.32;40.29;98486.88;5044024;27;123718;-72
2022/07/28 08:34:30;;;;;;;7.73;3.83;;;24.60;58.40;;;25.37;40.26;98484.81;5033491;27;114582;-72
2022/07/28 08:36:57;;;;;;;8.90;4.50;;;24.70;58.60;;;25.44;40.57;98482.72;5042161;27;114321;-72
2022/07/28 08:39:24;;;;;;;6.50;4.40;;;24.70;58.50;;;25.45;40.46;98475.81;5042965;27;123108;-72
2022/07/28 08:41:59;;;;;;;8.20;3.47;;;24.70;58.50;;;25.43;40.32;98472.59;5050533;27;123759;-71
2022/07/28 08:44:32;;;;;;;6.77;3.80;;;24.70;58.60;;;25.45;40.64;98463.72;5044342;27;114427;-73
2022/07/28 08:46:59;;;;;;;8.20;4.00;;;24.70;58.70;;;25.44;40.71;98471.41;5038026;27;113737;-73
2022/07/28 08:49:27;;;;;;;5.40;3.67;;;24.70;58.70;;;25.51;40.41;98470.50;5034911;27;124025;-73
2022/07/28 08:51:57;;;;;;;6.17;4.47;;;24.80;58.80;;;25.57;40.42;98478.09;5040822;27;123994;-71
2022/07/28 08:54:27;;;;;;;5.47;4.27;;;24.90;58.90;;;25.63;40.35;98469.16;5041790;27;114535;-71
2022/07/28 08:56:55;;;;;;;5.97;5.03;;;24.90;58.70;;;25.68;40.54;98469.47;5031070;27;112663;-72
2022/07/28 08:59:22;;;;;;;8.33;4.27;;;25.00;58.80;;;25.75;40.73;98466.56;5051509;27;123599;-73
2022/07/28 09:01:50;;;;;;;7.93;4.43;;;25.10;58.90;;;25.83;40.65;98461.63;5032812;27;123479;-72
2022/07/28 09:04:18;;;;;;;4.30;3.43;;;25.20;58.90;;;25.93;40.61;98460.72;5022259;27;114332;-72
2022/07/28 09:06:47;;;;;;;7.03;4.30;;;25.30;59.00;;;26.01;40.52;98458.59;5037271;27;114908;-70
2022/07/28 09:09:14;;;;;;;7.63;4.23;;;25.30;58.80;;;26.03;39.92;98461.78;5043768;27;124514;-72
2022/07/28 09:11:42;;;;;;;8.30;3.70;;;25.30;58.60;;;26.06;40.20;98458.16;5045744;27;123935;-75
2022/07/28 09:14:08;;;;;;;6.77;4.47;;;25.40;58.60;;;26.14;40.48;98455.97;5041879;27;113575;-73
2022/07/28 09:16:35;;;;;;;5.90;4.47;;;25.50;58.70;;;26.19;39.95;98464.84;5043776;27;114025;-73
2022/07/28 09:19:07;;;;;;;9.07;4.80;;;25.50;58.60;;;26.24;40.08;98455.03;5048587;27;124499;-72
2022/07/28 09:21:46;;;;;;;5.97;4.23;;;25.60;58.60;;;26.26;39.82;98455.41;5043142;27;123021;-72
2022/07/28 09:24:35;;;;;;;6.03;4.23;;;25.60;58.50;;;26.27;40.25;98454.19;5031761;27;114103;-72
2022/07/28 09:27:11;;;;;;;6.30;4.67;;;25.70;58.50;;;26.31;40.11;98449.28;5029037;27;114584;-72
2022/07/28 09:30:01;;;;;;;6.40;3.90;;;25.70;58.50;;;26.29;40.41;98443.22;5027614;27;124602;-73
2022/07/28 09:32:57;;;;;;;6.33;4.17;;;25.70;58.40;;;26.34;39.93;98451.25;5022330;27;123770;-72
2022/07/28 09:35:29;;;;;;;5.83;4.07;;;25.70;58.50;;;26.38;40.36;98440.69;5007964;27;112507;-72
2022/07/28 09:38:01;;;;;;;4.27;3.30;;;25.80;58.50;;;26.43;39.87;98436.53;5029177;27;113972;-73
2022/07/28 09:40:30;;;;;;;7.27;4.50;;;25.90;58.50;;;26.50;40.00;98446.97;5034503;27;123846;-72
2022/07/28 09:43:09;;;;;;;8.60;3.87;;;25.90;58.30;;;26.54;39.66;98442.88;5033772;27;124261;-72
2022/07/28 09:45:49;;;;;;;5.03;3.97;;;25.90;58.20;;;26.60;40.15;98437.53;5035577;27;114835;-73
2022/07/28 09:48:24;;;;;;;6.70;4.50;;;26.00;58.30;;;26.69;39.69;98432.13;5038894;27;114441;-73
2022/07/28 09:51:19;;;;;;;6.07;4.50;;;26.10;58.40;;;26.78;39.79;98434.41;5032111;27;124018;-73
2022/07/28 09:54:20;;;;;;;6.93;4.60;;;26.10;58.20;;;26.83;39.35;98426.19;5041741;27;124312;-73
2022/07/28 09:56:53;;;;;;;12.13;4.80;;;26.30;58.20;;;26.90;39.17;98421.66;5060517;27;115352;-73
2022/07/28 09:59:45;;;;;;;5.53;4.00;;;26.30;57.80;;;26.90;38.91;98425.28;5044306;27;115009;-72
2022/07/28 10:02:28;;;;;;;6.03;4.33;;;26.30;57.50;;;26.93;39.17;98430.09;5050053;27;124977;-72
2022/07/28 10:04:59;;;;;;;4.43;4.03;;;26.30;57.50;;;26.99;38.86;98413.38;5050554;27;123836;-73
2022/07/28 10:07:38;;;;;;;8.63;4.10;;;26.40;57.50;;;27.05;39.14;98425.81;5035283;27;114388;-72
2022/07/28 10:10:07;;;;;;;6.80;3.93;;;26.50;57.30;;;27.13;38.92;98410.25;5042307;27;113260;-73
2022/07/28 10:12:46;;;;;;;5.77;4.17;;;26.60;57.30;;;27.20;39.05;98404.50;5021061;27;124306;-72
2022/07/28 10:18:14;;;;;;;7.47;4.80;;;26.70;56.90;;;27.29;39.00;98407.56;5043523;27;114732;-72
2022/07/28 10:21:01;;;;;;;6.40;4.53;;;26.70;57.60;;;27.34;38.57;98405.47;5042078;27;114103;-72
2022/07/28 10:23:44;;;;;;;6.63;4.17;;;26.70;56.90;;;27.40;38.19;98400.88;5033327;27;123307;-73
2022/07/28 10:26:12;;;;;;;7.37;4.10;;;26.80;56.80;;;27.46;38.32;98397.09;5030701;27;124270;-73
2022/07/28 10:29:10;;;;;;;6.60;3.80;;;26.90;56.70;;;27.52;38.29;98386.84;5044863;27;114573;-73
2022/07/28 10:32:03;;;;;;;6.90;3.83;;;27.00;56.60;;;27.60;38.26;98396.00;4998653;28;113906;-72